EW8677 Weather Reports


Display with metric or nautical units.
time (UTC)temp
F
wind
direction
speed
MPH
gust
MPH
rain 1hr
in
rain 24hr
in
rain mn
in
humidity
%
barometer
mb
20180721020024 81 9 5.0 11.0 0.00 0.00 0.00 34 828.8
20180721011653 81 346 8.0 13.0 0.00 0.00 0.00 32 828.5
20180720235952 81 171 0.0 3.0 0.00 0.00 0.00 57 828.3
20180720230003 83 171 1.0 4.0 0.00 0.00 0.00 42 828.4
20180720220024 86 161 4.0 10.0 0.00 0.00 0.00 34 828.5
20180720210010 90 193 8.0 16.0 0.00 0.00 0.00 26 828.3
20180720201705 89 196 5.0 11.0 0.00 0.00 0.00 32 828.6
20180720185959 88 190 2.0 8.0 0.00 0.00 0.00 35 829.2
20180720180026 87 211 2.0 7.0 0.00 0.00 0.00 31 829.9
20180720170005 82 306 1.0 5.0 0.00 0.00 0.00 40 830.2
20180720145943 68 15 5.0 11.0 0.00 0.00 0.00 47 830.6
20180720135948 65 17 6.0 15.0 0.00 0.00 0.00 47 830.6
20180720125936 63 355 7.0 14.0 0.00 0.00 0.00 47 830.2
20180720121255 63 53 7.0 15.0 0.00 0.00 0.00 46 829.8
20180720105925 64 27 5.0 12.0 0.00 0.00 0.00 45 829.4
20180720095926 65 31 4.0 10.0 0.00 0.00 0.00 43 828.9
20180720085935 68 351 4.0 11.0 0.00 0.00 0.00 38 828.3
20180720075933 70 5 4.0 11.0 0.00 0.00 0.00 37 827.7
20180720065934 71 27 6.0 12.0 0.00 0.00 0.00 34 827.7
20180720060011 74 34 5.0 11.0 0.00 0.00 0.00 33 827.5
20180720045936 76 54 4.0 10.0 0.00 0.00 0.00 31 827.3
20180720035935 77 120 4.0 10.0 0.00 0.00 0.00 30 827.2
20180720031622 73 173 2.0 5.0 0.00 0.00 0.00 42 826.7